createdAt,value
2019-03-18T00:00:27.049Z,80.00
2019-03-18T00:02:55.858Z,80.10
2019-03-18T00:05:23.637Z,79.80
2019-03-18T00:07:51.265Z,80.00
2019-03-18T00:10:19.858Z,79.50
2019-03-18T00:12:47.471Z,79.50
2019-03-18T00:15:15.277Z,79.40
2019-03-18T00:17:44.417Z,79.10
2019-03-18T00:20:12.338Z,79.20
2019-03-18T00:22:40.145Z,78.60
2019-03-18T00:25:07.944Z,78.60
2019-03-18T00:27:36.884Z,79.10
2019-03-18T00:30:05.582Z,80.20
2019-03-18T00:32:34.368Z,80.90
2019-03-18T00:35:02.068Z,80.90
2019-03-18T00:37:29.798Z,80.90
2019-03-18T00:39:57.506Z,80.60
2019-03-18T00:42:55.940Z,80.80
2019-03-18T00:45:23.999Z,80.90
2019-03-18T00:47:51.660Z,80.90
2019-03-18T00:50:19.309Z,81.40
2019-03-18T00:52:46.992Z,81.20
2019-03-18T00:55:14.491Z,80.70
2019-03-18T00:57:42.221Z,80.00
2019-03-18T01:00:10.271Z,79.50
2019-03-18T01:02:37.911Z,79.30
2019-03-18T01:05:05.815Z,79.40
2019-03-18T01:07:33.504Z,79.10
2019-03-18T01:10:01.139Z,78.50
2019-03-18T01:12:28.928Z,79.10
2019-03-18T01:14:58.152Z,78.90
2019-03-18T01:17:25.836Z,78.20
2019-03-18T01:19:53.658Z,78.20
2019-03-18T01:22:22.379Z,78.20
2019-03-18T01:24:50.411Z,78.10
2019-03-18T01:27:18.227Z,78.10
2019-03-18T01:29:45.864Z,78.30
2019-03-18T01:32:13.615Z,78.40
2019-03-18T01:34:41.328Z,78.80
2019-03-18T01:37:29.433Z,78.30
2019-03-18T01:39:57.066Z,78.70
2019-03-18T01:42:24.798Z,78.50
2019-03-18T01:44:52.287Z,78.70
2019-03-18T01:47:19.991Z,78.50
2019-03-18T01:49:47.575Z,78.50
2019-03-18T01:52:15.179Z,77.90
2019-03-18T01:54:42.819Z,78.10
2019-03-18T01:57:11.413Z,78.30
2019-03-18T01:59:39.038Z,78.30
2019-03-18T02:02:06.809Z,78.40
2019-03-18T02:04:35.222Z,78.00
2019-03-18T02:07:02.852Z,78.20
2019-03-18T02:09:30.541Z,79.00
2019-03-18T02:11:57.955Z,79.20
2019-03-18T02:14:25.562Z,79.20
2019-03-18T02:16:53.326Z,78.80
2019-03-18T02:19:21.202Z,79.10
2019-03-18T02:21:48.978Z,79.20
2019-03-18T02:24:18.988Z,78.90
2019-03-18T02:26:46.295Z,79.20
2019-03-18T02:29:13.960Z,78.80
2019-03-18T02:32:07.264Z,79.20
2019-03-18T02:34:35.139Z,79.50
2019-03-18T02:37:02.792Z,79.30
2019-03-18T02:39:30.433Z,79.90
2019-03-18T02:41:58.246Z,80.10
2019-03-18T02:44:26.208Z,80.70
2019-03-18T02:46:53.804Z,80.70
2019-03-18T02:49:23.772Z,81.30
2019-03-18T02:51:52.950Z,81.40
2019-03-18T02:54:20.632Z,81.20
2019-03-18T02:56:48.174Z,81.10
2019-03-18T02:59:15.834Z,80.70
2019-03-18T03:01:43.357Z,80.70
2019-03-18T03:04:10.967Z,80.90
2019-03-18T03:06:38.600Z,80.70
2019-03-18T03:09:06.700Z,80.60
2019-03-18T03:11:34.724Z,80.90
2019-03-18T03:14:02.568Z,81.00
2019-03-18T03:16:30.215Z,80.60
2019-03-18T03:18:57.819Z,80.40
2019-03-18T03:21:25.546Z,80.20
2019-03-18T03:23:53.141Z,79.70
2019-03-18T03:26:22.614Z,80.20
2019-03-18T03:28:50.197Z,80.00
2019-03-18T03:31:17.870Z,80.00
2019-03-18T03:33:45.469Z,80.20
2019-03-18T03:36:12.842Z,80.30
2019-03-18T03:38:40.553Z,80.00
2019-03-18T03:41:08.762Z,79.50
2019-03-18T03:43:36.349Z,79.30
2019-03-18T03:46:04.052Z,78.80
2019-03-18T03:48:31.721Z,78.80
2019-03-18T03:50:59.386Z,78.60
2019-03-18T03:53:30.991Z,78.60
2019-03-18T03:55:58.181Z,78.80
2019-03-18T03:58:26.170Z,78.60
2019-03-18T04:00:53.853Z,78.70
2019-03-18T04:03:37.215Z,78.30
2019-03-18T04:05:51.041Z,77.90
2019-03-18T04:08:18.841Z,77.50
2019-03-18T04:10:46.470Z,78.10
2019-03-18T04:13:14.263Z,78.30
2019-03-18T04:15:42.135Z,78.50
2019-03-18T04:21:33.208Z,79.10
2019-03-18T04:24:00.839Z,79.60
2019-03-18T04:26:28.387Z,80.40
2019-03-18T04:28:56.006Z,80.90
2019-03-18T04:31:23.869Z,80.80
2019-03-18T04:33:51.848Z,80.90
2019-03-18T04:36:19.402Z,80.80
2019-03-18T04:38:46.997Z,80.60
2019-03-18T04:41:14.565Z,80.80
2019-03-18T04:43:42.234Z,80.60
2019-03-18T04:46:09.883Z,80.60
2019-03-18T04:48:37.589Z,81.70
2019-03-18T04:51:08.375Z,80.60
2019-03-18T04:53:35.905Z,80.70
2019-03-18T04:56:03.709Z,81.00
2019-03-18T04:58:31.171Z,81.30
2019-03-18T05:00:58.668Z,82.00
2019-03-18T05:03:26.389Z,82.50
2019-03-18T05:05:53.993Z,82.70
2019-03-18T05:08:21.555Z,83.00
2019-03-18T05:10:49.368Z,82.80
2019-03-18T05:13:17.003Z,82.30
2019-03-18T05:15:44.500Z,82.00
2019-03-18T05:18:12.137Z,82.00
2019-03-18T05:20:39.672Z,82.60
2019-03-18T05:23:07.247Z,83.10
2019-03-18T05:25:34.778Z,83.20
2019-03-18T05:28:02.870Z,82.80
2019-03-18T05:30:31.730Z,83.20
2019-03-18T05:32:59.337Z,83.10
2019-03-18T05:35:26.828Z,82.60
2019-03-18T05:37:55.850Z,82.90
2019-03-18T05:40:23.537Z,83.20
2019-03-18T05:42:52.839Z,83.40
2019-03-18T05:45:20.461Z,83.40
2019-03-18T05:47:48.053Z,83.20
2019-03-18T05:50:15.589Z,83.10
2019-03-18T05:52:44.163Z,82.90
2019-03-18T05:55:11.730Z,82.20
2019-03-18T05:57:40.479Z,82.90
2019-03-18T06:00:08.732Z,83.10
2019-03-18T06:02:36.300Z,82.70
2019-03-18T06:05:04.899Z,83.90
2019-03-18T06:07:32.484Z,82.90
2019-03-18T06:10:00.349Z,82.60
2019-03-18T06:12:27.799Z,82.70
2019-03-18T06:14:55.360Z,82.80
2019-03-18T06:17:22.996Z,82.70
2019-03-18T06:19:50.724Z,83.40
2019-03-18T06:22:18.305Z,82.20
2019-03-18T06:24:45.850Z,82.90
2019-03-18T06:27:13.434Z,82.80
2019-03-18T06:29:41.011Z,82.60
2019-03-18T06:32:08.690Z,82.30
2019-03-18T06:34:36.423Z,82.50
2019-03-18T06:37:04.098Z,82.60
2019-03-18T06:39:31.719Z,81.80
2019-03-18T06:41:59.294Z,81.40
2019-03-18T06:44:26.806Z,81.70
2019-03-18T06:46:54.434Z,82.20
2019-03-18T06:49:22.008Z,82.60
2019-03-18T06:51:49.705Z,82.60
2019-03-18T06:54:17.476Z,82.60
2019-03-18T06:56:45.005Z,82.50
2019-03-18T06:59:18.846Z,82.10
2019-03-18T07:01:46.413Z,82.00
2019-03-18T07:04:13.852Z,81.40
2019-03-18T07:06:41.498Z,81.90
2019-03-18T07:09:09.003Z,82.80
2019-03-18T07:11:36.639Z,83.20
2019-03-18T07:14:04.213Z,83.40
2019-03-18T07:16:31.766Z,83.50
2019-03-18T07:21:26.829Z,83.40
2019-03-18T07:23:54.425Z,83.40
2019-03-18T07:26:22.055Z,83.00
2019-03-18T07:28:49.857Z,83.00
2019-03-18T07:31:17.387Z,83.00
2019-03-18T07:33:45.259Z,83.10
2019-03-18T07:36:12.772Z,82.60
2019-03-18T07:38:40.396Z,82.10
2019-03-18T07:41:08.066Z,82.10
2019-03-18T07:43:35.631Z,82.10
2019-03-18T07:46:03.272Z,82.10
2019-03-18T07:48:31.680Z,81.30
2019-03-18T07:51:31.197Z,80.60
2019-03-18T07:53:58.968Z,80.40
2019-03-18T07:56:26.661Z,80.30
2019-03-18T07:58:54.287Z,79.30
2019-03-18T08:01:21.789Z,79.30
2019-03-18T08:03:49.806Z,79.30
2019-03-18T08:06:17.394Z,79.30
2019-03-18T08:08:44.961Z,78.80
2019-03-18T08:11:12.525Z,78.90
2019-03-18T08:13:40.252Z,79.00
2019-03-18T08:16:07.999Z,78.90
2019-03-18T08:18:43.039Z,78.70
2019-03-18T08:21:12.340Z,78.10
2019-03-18T08:23:39.928Z,77.40
2019-03-18T08:26:07.645Z,79.10
2019-03-18T08:28:35.214Z,77.00
2019-03-18T08:31:02.953Z,77.20
2019-03-18T08:33:30.647Z,77.20
2019-03-18T08:35:58.198Z,78.00
2019-03-18T08:38:32.849Z,78.00
2019-03-18T08:41:00.552Z,78.00
2019-03-18T08:43:28.557Z,78.10
2019-03-18T08:45:56.188Z,77.60
2019-03-18T08:48:26.320Z,77.50
2019-03-18T08:50:53.975Z,76.90
2019-03-18T08:53:22.714Z,76.60
2019-03-18T08:55:50.269Z,76.10
2019-03-18T08:58:26.029Z,77.10
2019-03-18T09:00:53.491Z,76.50
2019-03-18T09:03:20.987Z,76.40
2019-03-18T09:05:48.588Z,76.00
2019-03-18T09:08:16.169Z,76.60
2019-03-18T09:10:43.812Z,75.70
2019-03-18T09:13:11.449Z,76.40
2019-03-18T09:15:39.191Z,74.70
2019-03-18T09:18:06.905Z,75.80
2019-03-18T09:20:34.705Z,74.60
2019-03-18T09:23:02.419Z,74.20
2019-03-18T09:25:30.119Z,75.00
2019-03-18T09:27:57.806Z,75.30
2019-03-18T09:30:24.966Z,76.10
2019-03-18T09:32:52.632Z,75.80
2019-03-18T09:35:20.393Z,75.70
2019-03-18T09:37:48.143Z,75.70
2019-03-18T09:40:16.165Z,75.70
2019-03-18T09:42:45.236Z,76.30
2019-03-18T09:45:13.159Z,75.50
2019-03-18T09:47:40.719Z,76.60
2019-03-18T09:50:09.234Z,78.40
2019-03-18T09:52:36.863Z,79.90
2019-03-18T09:55:04.862Z,78.30
2019-03-18T09:57:32.529Z,77.20
2019-03-18T10:00:00.393Z,77.70
2019-03-18T10:02:27.990Z,76.90
2019-03-18T10:04:55.550Z,76.40
2019-03-18T10:07:23.432Z,75.30
2019-03-18T10:09:51.002Z,75.90
2019-03-18T10:12:18.650Z,76.30
2019-03-18T10:14:46.320Z,75.20
2019-03-18T10:17:17.138Z,75.90
2019-03-18T10:19:44.759Z,75.50
2019-03-18T10:22:12.529Z,72.70
2019-03-18T10:24:40.138Z,71.60
2019-03-18T10:27:07.792Z,71.70
2019-03-18T10:29:35.615Z,72.70
2019-03-18T10:32:03.233Z,71.80
2019-03-18T10:34:30.939Z,71.40
2019-03-18T10:36:58.494Z,71.70
2019-03-18T10:39:26.288Z,71.90
2019-03-18T10:41:54.046Z,70.50
2019-03-18T10:44:21.680Z,70.20
2019-03-18T10:46:49.398Z,71.30
2019-03-18T10:49:17.078Z,70.00
2019-03-18T10:51:44.918Z,69.30
2019-03-18T10:54:12.572Z,67.90
2019-03-18T10:56:41.270Z,66.60
2019-03-18T10:59:10.121Z,67.60
2019-03-18T11:01:37.794Z,66.40
2019-03-18T11:04:05.416Z,66.10
2019-03-18T11:06:33.166Z,64.70
2019-03-18T11:09:00.732Z,64.20
2019-03-18T11:11:28.504Z,63.30
2019-03-18T11:13:56.115Z,65.10
2019-03-18T11:16:23.727Z,65.60
2019-03-18T11:18:51.339Z,62.00
2019-03-18T11:21:19.010Z,62.00
2019-03-18T11:23:46.749Z,62.00
2019-03-18T11:26:14.515Z,63.30
2019-03-18T11:28:44.883Z,63.20
2019-03-18T11:31:12.447Z,60.60
2019-03-18T11:33:40.223Z,57.90
2019-03-18T11:36:07.949Z,59.30
2019-03-18T11:38:35.594Z,59.80
2019-03-18T11:41:04.327Z,59.60
2019-03-18T11:43:36.290Z,59.90
2019-03-18T11:46:03.851Z,60.10
2019-03-18T11:48:31.369Z,62.20
2019-03-18T11:50:59.398Z,62.20
2019-03-18T11:53:26.890Z,60.90
2019-03-18T11:55:54.411Z,58.30
2019-03-18T11:58:22.037Z,57.60
2019-03-18T12:00:51.053Z,58.10
2019-03-18T12:03:18.753Z,57.40
2019-03-18T12:05:47.400Z,57.50
2019-03-18T12:08:15.061Z,57.20
2019-03-18T12:10:44.519Z,54.60
2019-03-18T12:13:16.581Z,55.80
2019-03-18T12:15:46.333Z,54.60
2019-03-18T12:18:13.963Z,53.50
2019-03-18T12:20:41.878Z,53.00
2019-03-18T12:23:09.435Z,54.20
2019-03-18T12:25:37.072Z,55.70
2019-03-18T12:28:05.449Z,54.90
2019-03-18T12:30:33.264Z,54.60
2019-03-18T12:33:00.842Z,54.80
2019-03-18T12:35:28.388Z,55.50
2019-03-18T12:37:56.144Z,56.60
2019-03-18T12:40:23.704Z,57.20
2019-03-18T12:42:54.106Z,59.00
2019-03-18T12:45:21.576Z,61.00
2019-03-18T12:48:12.429Z,62.70
2019-03-18T12:50:55.213Z,63.90
2019-03-18T12:53:09.236Z,64.50
2019-03-18T12:55:37.103Z,65.80
2019-03-18T12:58:05.103Z,67.70
2019-03-18T13:00:33.214Z,67.40
2019-03-18T13:03:03.514Z,67.20
2019-03-18T13:05:31.061Z,67.00
2019-03-18T13:07:59.835Z,66.70
2019-03-18T13:10:27.348Z,67.60
2019-03-18T13:12:58.972Z,67.10
2019-03-18T13:15:26.685Z,66.40
2019-03-18T13:17:57.122Z,66.60
2019-03-18T13:20:24.744Z,65.40
2019-03-18T13:22:53.906Z,65.60
2019-03-18T13:25:22.762Z,65.70
2019-03-18T13:27:50.369Z,63.50
2019-03-18T13:30:18.064Z,60.40
2019-03-18T13:32:46.060Z,58.70
2019-03-18T13:35:14.193Z,56.90
2019-03-18T13:37:42.085Z,56.90
2019-03-18T13:40:09.841Z,55.00
2019-03-18T13:42:37.811Z,55.00
2019-03-18T13:45:07.195Z,55.80
2019-03-18T13:47:34.917Z,56.20
2019-03-18T13:50:02.597Z,55.70
2019-03-18T13:52:30.274Z,56.40
2019-03-18T13:54:57.887Z,57.00
2019-03-18T13:57:25.401Z,56.30
2019-03-18T13:59:52.939Z,55.60
2019-03-18T14:02:20.674Z,56.30
2019-03-18T14:04:48.330Z,56.50
2019-03-18T14:07:15.832Z,57.00
2019-03-18T14:09:43.301Z,56.00
2019-03-18T14:12:20.949Z,56.10
2019-03-18T14:14:48.600Z,56.10
2019-03-18T14:17:16.278Z,57.90
2019-03-18T14:19:43.804Z,60.90
2019-03-18T14:22:11.425Z,67.00
2019-03-18T14:24:39.025Z,70.00
2019-03-18T14:27:06.640Z,74.20
2019-03-18T14:29:34.181Z,76.10
2019-03-18T14:32:01.643Z,76.50
2019-03-18T14:34:30.271Z,76.10
2019-03-18T14:37:05.455Z,78.80
2019-03-18T14:39:33.538Z,81.40
2019-03-18T14:42:01.488Z,81.00
2019-03-18T14:44:29.314Z,80.80
2019-03-18T14:46:56.854Z,82.00
2019-03-18T14:49:24.387Z,82.10
2019-03-18T14:51:52.154Z,82.90
2019-03-18T14:54:19.822Z,82.50
2019-03-18T14:56:47.478Z,81.50
2019-03-18T14:59:15.142Z,77.10
2019-03-18T15:01:42.856Z,73.80
2019-03-18T15:04:10.627Z,74.20
2019-03-18T15:06:38.454Z,71.10
2019-03-18T15:09:07.266Z,70.80
2019-03-18T15:11:35.007Z,70.80
2019-03-18T15:14:03.841Z,72.10
2019-03-18T15:16:31.607Z,70.90
2019-03-18T15:18:59.243Z,71.40
2019-03-18T15:21:26.761Z,71.30
2019-03-18T15:23:54.771Z,71.20
2019-03-18T15:26:25.480Z,70.00
2019-03-18T15:28:53.211Z,70.70
2019-03-18T15:31:20.843Z,69.70
2019-03-18T15:33:49.692Z,67.80
2019-03-18T15:36:17.358Z,67.10
2019-03-18T15:38:45.278Z,67.50
2019-03-18T15:41:13.442Z,65.70
2019-03-18T15:43:42.378Z,65.30
2019-03-18T15:46:12.218Z,63.00
2019-03-18T15:48:43.084Z,61.70
2019-03-18T15:51:10.877Z,60.80
2019-03-18T15:53:40.518Z,59.70
2019-03-18T15:56:08.310Z,58.50
2019-03-18T15:58:38.392Z,57.50
2019-03-18T16:01:06.191Z,56.60
2019-03-18T16:03:34.089Z,55.80
2019-03-18T16:06:03.535Z,55.40
2019-03-18T16:08:31.363Z,55.00
2019-03-18T16:10:59.618Z,55.50
2019-03-18T16:13:31.043Z,54.80
2019-03-18T16:16:00.005Z,54.60
2019-03-18T16:18:29.762Z,54.90
2019-03-18T16:20:57.385Z,54.80
2019-03-18T16:23:25.119Z,55.00
2019-03-18T16:25:56.288Z,54.50
2019-03-18T16:28:24.003Z,54.60
2019-03-18T16:30:54.060Z,55.20
2019-03-18T16:33:21.924Z,55.50
2019-03-18T16:35:49.760Z,55.60
2019-03-18T16:38:17.558Z,55.20
2019-03-18T16:40:46.111Z,55.70
2019-03-18T16:43:13.912Z,56.00
2019-03-18T16:45:42.605Z,55.50
2019-03-18T16:48:10.457Z,56.20
2019-03-18T16:50:38.072Z,56.40
2019-03-18T16:53:05.765Z,57.10
2019-03-18T16:55:33.489Z,58.40
2019-03-18T16:58:02.227Z,59.50
2019-03-18T17:00:35.322Z,60.10
2019-03-18T17:03:03.058Z,61.40
2019-03-18T17:05:39.996Z,62.10
2019-03-18T17:08:07.910Z,62.70
2019-03-18T17:10:36.173Z,63.50
2019-03-18T17:13:07.912Z,64.60
2019-03-18T17:15:40.521Z,65.10
2019-03-18T17:18:17.871Z,66.10
2019-03-18T17:20:45.743Z,66.80
2019-03-18T17:23:13.876Z,67.00
2019-03-18T17:25:44.694Z,67.40
2019-03-18T17:28:12.898Z,67.80
2019-03-18T17:30:40.721Z,68.40
2019-03-18T17:33:08.751Z,69.00
2019-03-18T17:35:36.584Z,69.20
2019-03-18T17:38:05.324Z,69.50
2019-03-18T17:40:33.203Z,69.20
2019-03-18T17:43:01.411Z,69.20
2019-03-18T17:45:29.680Z,69.00
2019-03-18T17:48:03.679Z,69.30
2019-03-18T17:50:32.797Z,69.40
2019-03-18T17:53:03.712Z,69.70
2019-03-18T17:55:33.803Z,69.60
2019-03-18T17:58:05.691Z,69.90
2019-03-18T18:00:39.982Z,70.00
2019-03-18T18:06:33.302Z,72.70
2019-03-18T18:09:01.285Z,72.60
2019-03-18T18:11:38.494Z,73.20
2019-03-18T18:14:07.390Z,74.20
2019-03-18T18:16:36.391Z,76.20
2019-03-18T18:19:04.605Z,75.20
2019-03-18T18:21:32.809Z,75.50
2019-03-18T18:24:00.615Z,75.60
2019-03-18T18:26:46.978Z,75.10
2019-03-18T18:29:14.929Z,75.10
2019-03-18T18:31:42.678Z,75.10
2019-03-18T18:34:13.704Z,75.30
2019-03-18T18:36:41.989Z,76.00
2019-03-18T18:39:11.639Z,76.10
2019-03-18T18:41:39.496Z,76.00
2019-03-18T18:44:07.474Z,75.80
2019-03-18T18:46:35.467Z,75.80
2019-03-18T18:49:03.253Z,76.10
2019-03-18T18:51:31.102Z,75.90
2019-03-18T18:53:59.102Z,76.20
2019-03-18T18:56:27.067Z,77.00
2019-03-18T18:58:55.080Z,77.50
2019-03-18T19:01:22.952Z,77.60
2019-03-18T19:03:51.344Z,77.70
2019-03-18T19:06:21.240Z,78.90
2019-03-18T19:08:49.135Z,78.00
2019-03-18T19:11:17.026Z,78.30
2019-03-18T19:13:45.384Z,78.60
2019-03-18T19:16:13.080Z,79.10
2019-03-18T19:18:47.637Z,79.30
2019-03-18T19:21:19.555Z,78.90
2019-03-18T19:23:52.327Z,78.90
2019-03-18T19:26:20.602Z,79.00
2019-03-18T19:28:48.375Z,78.40
2019-03-18T19:31:16.278Z,77.80
2019-03-18T19:33:45.137Z,77.20
2019-03-18T19:36:13.173Z,77.20
2019-03-18T19:38:41.136Z,77.50
2019-03-18T19:41:08.824Z,77.30
2019-03-18T19:43:37.642Z,77.20
2019-03-18T19:46:05.984Z,77.30
2019-03-18T19:48:34.466Z,77.40
2019-03-18T19:51:02.299Z,77.10
2019-03-18T19:53:30.262Z,77.40
2019-03-18T19:55:57.924Z,77.00
2019-03-18T19:58:25.825Z,76.90
2019-03-18T20:00:53.628Z,77.10
2019-03-18T20:03:24.585Z,77.20
2019-03-18T20:05:54.987Z,77.30
2019-03-18T20:08:22.805Z,77.10
2019-03-18T20:10:50.625Z,76.30
2019-03-18T20:13:18.503Z,76.30
2019-03-18T20:15:48.880Z,76.30
2019-03-18T20:18:16.771Z,76.60
2019-03-18T20:20:44.865Z,76.70
2019-03-18T20:23:12.827Z,77.10
2019-03-18T20:25:40.774Z,78.00
2019-03-18T20:28:08.661Z,76.90
2019-03-18T20:30:36.801Z,76.60
2019-03-18T20:33:04.938Z,76.50
2019-03-18T20:35:33.186Z,76.60
2019-03-18T20:38:01.075Z,76.40
2019-03-18T21:18:17.398Z,75.90
2019-03-18T21:20:45.478Z,76.40
2019-03-18T21:23:13.781Z,76.10
2019-03-18T21:25:41.791Z,75.90
2019-03-18T21:28:09.913Z,75.80
2019-03-18T21:30:40.876Z,75.70
2019-03-18T21:33:09.193Z,75.50
2019-03-18T21:35:37.262Z,75.60
2019-03-18T21:38:05.405Z,76.00
2019-03-18T21:40:33.219Z,76.10
2019-03-18T21:43:01.506Z,75.90
2019-03-18T21:45:58.747Z,75.90
2019-03-18T21:48:26.679Z,75.60
2019-03-18T21:50:54.344Z,75.70
2019-03-18T21:53:22.298Z,76.00
2019-03-18T21:55:50.258Z,76.60
2019-03-18T21:58:18.083Z,76.60
2019-03-18T22:00:45.993Z,76.60
2019-03-18T22:03:13.867Z,76.40
2019-03-18T22:05:42.733Z,77.20
2019-03-18T22:08:10.736Z,75.90
2019-03-18T22:10:38.426Z,75.80
2019-03-18T22:13:06.180Z,75.70
2019-03-18T22:15:33.799Z,75.90
2019-03-18T22:18:22.720Z,76.10
2019-03-18T22:20:50.678Z,76.40
2019-03-18T22:23:29.686Z,76.80
2019-03-18T22:25:57.701Z,77.00
2019-03-18T22:28:27.168Z,77.10
2019-03-18T22:30:57.679Z,77.00
2019-03-18T22:33:28.034Z,76.80
2019-03-18T22:36:27.258Z,76.40
2019-03-18T22:38:59.588Z,77.40
2019-03-18T22:41:30.763Z,76.10
2019-03-18T22:43:58.999Z,75.90
2019-03-18T22:46:29.085Z,76.00
2019-03-18T22:48:57.107Z,76.30
2019-03-18T22:51:27.814Z,76.50
2019-03-18T22:53:58.757Z,76.80
2019-03-18T22:56:27.991Z,77.30
2019-03-18T22:58:55.676Z,77.90
2019-03-18T23:01:25.361Z,78.30
2019-03-18T23:03:53.322Z,78.60
2019-03-18T23:06:20.915Z,78.80
2019-03-18T23:08:49.033Z,78.50
2019-03-18T23:11:18.564Z,78.00
2019-03-18T23:13:46.238Z,78.10
2019-03-18T23:16:13.974Z,77.90
2019-03-18T23:18:42.758Z,78.10
2019-03-18T23:21:10.402Z,78.20
2019-03-18T23:23:38.158Z,77.60
2019-03-18T23:26:09.215Z,77.30
2019-03-18T23:28:46.487Z,77.20
2019-03-18T23:31:17.354Z,77.20
2019-03-18T23:33:48.343Z,77.90
2019-03-18T23:36:16.092Z,77.30
2019-03-18T23:38:46.626Z,77.90
2019-03-18T23:41:21.409Z,78.00
2019-03-18T23:43:51.738Z,78.00
2019-03-18T23:46:19.377Z,77.30
2019-03-18T23:48:46.998Z,77.30
2019-03-18T23:51:14.540Z,76.70
2019-03-18T23:53:42.171Z,76.40
2019-03-18T23:56:09.916Z,76.40
2019-03-18T23:58:37.641Z,76.00
